sensor_id;sensor_type;location;lat;lon;timestamp;temperature;humidity
13976;DHT22;7062;49.792;9.946;2023-02-26T00:00:59;2.40;99.90
13976;DHT22;7062;49.792;9.946;2023-02-26T00:03:25;2.50;99.90
13976;DHT22;7062;49.792;9.946;2023-02-26T00:05:50;2.50;99.90
13976;DHT22;7062;49.792;9.946;2023-02-26T00:08:16;2.60;99.90
13976;DHT22;7062;49.792;9.946;2023-02-26T00:10:41;2.70;99.90
13976;DHT22;7062;49.792;9.946;2023-02-26T00:13:11;2.70;99.90
13976;DHT22;7062;49.792;9.946;2023-02-26T00:15:37;2.60;99.90
13976;DHT22;7062;49.792;9.946;2023-02-26T00:18:07;2.50;99.90
13976;DHT22;7062;49.792;9.946;2023-02-26T00:20:35;2.50;99.90
13976;DHT22;7062;49.792;9.946;2023-02-26T00:23:01;2.60;99.90
13976;DHT22;7062;49.792;9.946;2023-02-26T00:25:27;2.70;99.90
13976;DHT22;7062;49.792;9.946;2023-02-26T00:27:53;2.70;99.90
13976;DHT22;7062;49.792;9.946;2023-02-26T00:30:18;2.70;99.90
13976;DHT22;7062;49.792;9.946;2023-02-26T00:32:45;2.90;99.90
13976;DHT22;7062;49.792;9.946;2023-02-26T00:35:13;3.10;99.90
13976;DHT22;7062;49.792;9.946;2023-02-26T00:37:54;3.00;99.90
13976;DHT22;7062;49.792;9.946;2023-02-26T00:43:14;2.60;99.90
13976;DHT22;7062;49.792;9.946;2023-02-26T00:48:46;2.50;99.90
13976;DHT22;7062;49.792;9.946;2023-02-26T00:51:19;2.60;99.90
13976;DHT22;7062;49.792;9.946;2023-02-26T00:56:13;2.60;99.90
13976;DHT22;7062;49.792;9.946;2023-02-26T00:58:39;2.60;99.90
13976;DHT22;7062;49.792;9.946;2023-02-26T01:01:05;2.60;99.90
13976;DHT22;7062;49.792;9.946;2023-02-26T01:03:31;2.60;99.90
13976;DHT22;7062;49.792;9.946;2023-02-26T01:05:57;2.50;99.90
13976;DHT22;7062;49.792;9.946;2023-02-26T01:08:25;2.60;99.90
13976;DHT22;7062;49.792;9.946;2023-02-26T01:10:53;2.70;99.90
13976;DHT22;7062;49.792;9.946;2023-02-26T01:13:18;2.80;99.90
13976;DHT22;7062;49.792;9.946;2023-02-26T01:15:49;2.90;99.90
13976;DHT22;7062;49.792;9.946;2023-02-26T01:18:41;2.90;99.90
13976;DHT22;7062;49.792;9.946;2023-02-26T01:21:13;2.80;99.90
13976;DHT22;7062;49.792;9.946;2023-02-26T01:23:44;2.80;99.90
13976;DHT22;7062;49.792;9.946;2023-02-26T01:26:29;2.70;99.90
13976;DHT22;7062;49.792;9.946;2023-02-26T01:28:55;2.90;99.90
13976;DHT22;7062;49.792;9.946;2023-02-26T01:31:47;2.80;99.90
13976;DHT22;7062;49.792;9.946;2023-02-26T01:34:18;2.70;99.90
13976;DHT22;7062;49.792;9.946;2023-02-26T01:36:59;2.80;99.90
13976;DHT22;7062;49.792;9.946;2023-02-26T01:39:39;2.90;99.90
13976;DHT22;7062;49.792;9.946;2023-02-26T01:44:58;2.90;99.90
13976;DHT22;7062;49.792;9.946;2023-02-26T01:47:38;3.00;99.90
13976;DHT22;7062;49.792;9.946;2023-02-26T01:50:15;3.00;99.90
13976;DHT22;7062;49.792;9.946;2023-02-26T01:55:14;2.70;99.90
13976;DHT22;7062;49.792;9.946;2023-02-26T01:57:41;2.70;99.90
13976;DHT22;7062;49.792;9.946;2023-02-26T02:00:08;2.50;99.90
13976;DHT22;7062;49.792;9.946;2023-02-26T02:02:34;2.50;99.90
13976;DHT22;7062;49.792;9.946;2023-02-26T02:05:15;2.50;99.90
13976;DHT22;7062;49.792;9.946;2023-02-26T02:07:42;2.40;99.90
13976;DHT22;7062;49.792;9.946;2023-02-26T02:10:08;2.50;99.90
13976;DHT22;7062;49.792;9.946;2023-02-26T02:12:50;2.30;99.90
13976;DHT22;7062;49.792;9.946;2023-02-26T02:21:06;2.10;99.90
13976;DHT22;7062;49.792;9.946;2023-02-26T02:31:30;1.70;99.90
13976;DHT22;7062;49.792;9.946;2023-02-26T02:42:18;1.50;99.90
13976;DHT22;7062;49.792;9.946;2023-02-26T02:44:49;1.60;99.90
13976;DHT22;7062;49.792;9.946;2023-02-26T02:47:17;1.60;99.90
13976;DHT22;7062;49.792;9.946;2023-02-26T02:49:56;1.50;99.90
13976;DHT22;7062;49.792;9.946;2023-02-26T02:55:35;1.60;99.90
13976;DHT22;7062;49.792;9.946;2023-02-26T02:58:25;1.60;99.90
13976;DHT22;7062;49.792;9.946;2023-02-26T03:00:55;1.60;99.90
13976;DHT22;7062;49.792;9.946;2023-02-26T03:03:33;1.50;99.90
13976;DHT22;7062;49.792;9.946;2023-02-26T03:06:00;1.50;99.90
13976;DHT22;7062;49.792;9.946;2023-02-26T03:08:29;1.40;99.90
13976;DHT22;7062;49.792;9.946;2023-02-26T03:10:56;1.30;99.90
13976;DHT22;7062;49.792;9.946;2023-02-26T03:13:23;1.40;99.90
13976;DHT22;7062;49.792;9.946;2023-02-26T03:19:03;1.50;99.90
13976;DHT22;7062;49.792;9.946;2023-02-26T03:27:00;1.40;99.90
13976;DHT22;7062;49.792;9.946;2023-02-26T03:29:39;1.50;99.90
13976;DHT22;7062;49.792;9.946;2023-02-26T03:32:17;1.70;99.90
13976;DHT22;7062;49.792;9.946;2023-02-26T03:34:53;1.80;99.90
13976;DHT22;7062;49.792;9.946;2023-02-26T03:37:48;1.90;99.90
13976;DHT22;7062;49.792;9.946;2023-02-26T03:40:29;1.90;99.90
13976;DHT22;7062;49.792;9.946;2023-02-26T03:45:34;1.80;99.90
13976;DHT22;7062;49.792;9.946;2023-02-26T03:48:04;1.70;99.90
13976;DHT22;7062;49.792;9.946;2023-02-26T03:50:37;1.70;99.90
13976;DHT22;7062;49.792;9.946;2023-02-26T03:53:07;1.50;99.90
13976;DHT22;7062;49.792;9.946;2023-02-26T03:58:03;1.50;99.90
13976;DHT22;7062;49.792;9.946;2023-02-26T04:00:30;1.50;99.90
13976;DHT22;7062;49.792;9.946;2023-02-26T04:03:16;1.60;99.90
13976;DHT22;7062;49.792;9.946;2023-02-26T04:05:48;1.50;99.90
13976;DHT22;7062;49.792;9.946;2023-02-26T04:08:15;1.60;99.90
13976;DHT22;7062;49.792;9.946;2023-02-26T04:10:44;1.60;99.90
13976;DHT22;7062;49.792;9.946;2023-02-26T04:13:11;1.70;99.90
13976;DHT22;7062;49.792;9.946;2023-02-26T04:15:37;1.80;99.90
13976;DHT22;7062;49.792;9.946;2023-02-26T04:18:03;1.70;99.90
13976;DHT22;7062;49.792;9.946;2023-02-26T04:20:29;1.70;99.90
13976;DHT22;7062;49.792;9.946;2023-02-26T04:22:55;1.60;99.90
13976;DHT22;7062;49.792;9.946;2023-02-26T04:25:20;1.50;99.90
13976;DHT22;7062;49.792;9.946;2023-02-26T04:27:46;1.40;99.90
13976;DHT22;7062;49.792;9.946;2023-02-26T04:30:12;1.30;99.90
13976;DHT22;7062;49.792;9.946;2023-02-26T04:32:37;1.30;99.90
13976;DHT22;7062;49.792;9.946;2023-02-26T04:35:03;1.40;99.90
13976;DHT22;7062;49.792;9.946;2023-02-26T04:37:29;1.30;99.90
13976;DHT22;7062;49.792;9.946;2023-02-26T04:39:55;1.30;99.90
13976;DHT22;7062;49.792;9.946;2023-02-26T04:42:20;1.40;99.90
13976;DHT22;7062;49.792;9.946;2023-02-26T04:44:46;1.40;99.90
13976;DHT22;7062;49.792;9.946;2023-02-26T04:47:12;1.50;99.90
13976;DHT22;7062;49.792;9.946;2023-02-26T04:49:38;1.30;99.90
13976;DHT22;7062;49.792;9.946;2023-02-26T04:52:03;1.30;99.90
13976;DHT22;7062;49.792;9.946;2023-02-26T04:54:29;1.30;99.90
13976;DHT22;7062;49.792;9.946;2023-02-26T04:56:55;1.30;99.90
13976;DHT22;7062;49.792;9.946;2023-02-26T04:59:21;1.30;99.90
13976;DHT22;7062;49.792;9.946;2023-02-26T05:01:46;1.30;99.90
13976;DHT22;7062;49.792;9.946;2023-02-26T05:04:12;1.30;99.90
13976;DHT22;7062;49.792;9.946;2023-02-26T05:06:38;1.00;99.90
13976;DHT22;7062;49.792;9.946;2023-02-26T05:09:04;1.00;99.90
13976;DHT22;7062;49.792;9.946;2023-02-26T05:11:29;0.90;99.90
13976;DHT22;7062;49.792;9.946;2023-02-26T05:13:55;0.80;99.90
13976;DHT22;7062;49.792;9.946;2023-02-26T05:16:21;0.90;99.90
13976;DHT22;7062;49.792;9.946;2023-02-26T05:18:46;0.90;99.90
13976;DHT22;7062;49.792;9.946;2023-02-26T05:21:12;1.00;99.90
13976;DHT22;7062;49.792;9.946;2023-02-26T05:23:37;1.00;99.90
13976;DHT22;7062;49.792;9.946;2023-02-26T05:26:03;1.00;99.90
13976;DHT22;7062;49.792;9.946;2023-02-26T05:28:29;1.10;99.90
13976;DHT22;7062;49.792;9.946;2023-02-26T05:30:55;1.00;99.90
13976;DHT22;7062;49.792;9.946;2023-02-26T05:33:22;1.10;99.90
13976;DHT22;7062;49.792;9.946;2023-02-26T05:35:48;1.10;99.90
13976;DHT22;7062;49.792;9.946;2023-02-26T05:38:13;1.20;99.90
13976;DHT22;7062;49.792;9.946;2023-02-26T05:40:39;1.20;99.90
13976;DHT22;7062;49.792;9.946;2023-02-26T05:43:05;1.30;99.90
13976;DHT22;7062;49.792;9.946;2023-02-26T05:45:31;1.40;99.90
13976;DHT22;7062;49.792;9.946;2023-02-26T05:47:56;1.30;99.90
13976;DHT22;7062;49.792;9.946;2023-02-26T05:50:22;1.30;99.90
13976;DHT22;7062;49.792;9.946;2023-02-26T05:52:48;1.40;99.90
13976;DHT22;7062;49.792;9.946;2023-02-26T05:55:13;1.30;99.90
13976;DHT22;7062;49.792;9.946;2023-02-26T05:57:39;1.30;99.90
13976;DHT22;7062;49.792;9.946;2023-02-26T06:00:06;1.30;99.90
13976;DHT22;7062;49.792;9.946;2023-02-26T06:02:32;1.40;99.90
13976;DHT22;7062;49.792;9.946;2023-02-26T06:04:58;1.50;99.90
13976;DHT22;7062;49.792;9.946;2023-02-26T06:07:23;1.60;99.90
13976;DHT22;7062;49.792;9.946;2023-02-26T06:09:49;1.60;99.90
13976;DHT22;7062;49.792;9.946;2023-02-26T06:12:15;1.60;99.90
13976;DHT22;7062;49.792;9.946;2023-02-26T06:14:40;1.70;99.90
13976;DHT22;7062;49.792;9.946;2023-02-26T06:17:06;1.60;99.90
13976;DHT22;7062;49.792;9.946;2023-02-26T06:19:32;1.50;99.90
13976;DHT22;7062;49.792;9.946;2023-02-26T06:21:58;1.70;99.90
13976;DHT22;7062;49.792;9.946;2023-02-26T06:24:23;1.70;99.90
13976;DHT22;7062;49.792;9.946;2023-02-26T06:26:49;1.70;99.90
13976;DHT22;7062;49.792;9.946;2023-02-26T06:29:15;1.70;99.90
13976;DHT22;7062;49.792;9.946;2023-02-26T06:31:43;1.70;99.90
13976;DHT22;7062;49.792;9.946;2023-02-26T06:34:09;1.80;99.90
13976;DHT22;7062;49.792;9.946;2023-02-26T06:36:34;1.80;99.90
13976;DHT22;7062;49.792;9.946;2023-02-26T06:39:00;1.70;99.90
13976;DHT22;7062;49.792;9.946;2023-02-26T06:41:25;1.80;99.90
13976;DHT22;7062;49.792;9.946;2023-02-26T06:43:51;1.90;99.90
13976;DHT22;7062;49.792;9.946;2023-02-26T06:46:17;1.90;99.90
13976;DHT22;7062;49.792;9.946;2023-02-26T06:48:42;2.00;99.90
13976;DHT22;7062;49.792;9.946;2023-02-26T06:51:08;2.00;99.90
13976;DHT22;7062;49.792;9.946;2023-02-26T06:53:34;2.00;99.90
13976;DHT22;7062;49.792;9.946;2023-02-26T06:55:59;2.00;99.90
13976;DHT22;7062;49.792;9.946;2023-02-26T06:58:25;2.00;99.90
13976;DHT22;7062;49.792;9.946;2023-02-26T07:00:51;1.80;99.90
13976;DHT22;7062;49.792;9.946;2023-02-26T07:03:17;1.80;99.90
13976;DHT22;7062;49.792;9.946;2023-02-26T07:05:44;1.80;99.90
13976;DHT22;7062;49.792;9.946;2023-02-26T07:08:11;1.90;99.90
13976;DHT22;7062;49.792;9.946;2023-02-26T07:10:38;1.90;99.90
13976;DHT22;7062;49.792;9.946;2023-02-26T07:13:04;1.80;99.90
13976;DHT22;7062;49.792;9.946;2023-02-26T07:15:30;2.00;99.90
13976;DHT22;7062;49.792;9.946;2023-02-26T07:17:55;2.20;99.90
13976;DHT22;7062;49.792;9.946;2023-02-26T07:20:21;2.30;99.90
13976;DHT22;7062;49.792;9.946;2023-02-26T07:22:47;2.50;99.90
13976;DHT22;7062;49.792;9.946;2023-02-26T07:25:13;2.50;99.90
13976;DHT22;7062;49.792;9.946;2023-02-26T07:27:39;2.60;99.90
13976;DHT22;7062;49.792;9.946;2023-02-26T07:30:06;2.70;99.90
13976;DHT22;7062;49.792;9.946;2023-02-26T07:32:32;2.50;99.90
13976;DHT22;7062;49.792;9.946;2023-02-26T07:34:58;2.40;99.90
13976;DHT22;7062;49.792;9.946;2023-02-26T07:37:24;2.60;99.90
13976;DHT22;7062;49.792;9.946;2023-02-26T07:39:50;2.80;99.90
13976;DHT22;7062;49.792;9.946;2023-02-26T07:42:16;2.90;99.90
13976;DHT22;7062;49.792;9.946;2023-02-26T07:44:42;2.70;99.90
13976;DHT22;7062;49.792;9.946;2023-02-26T07:47:09;2.90;99.90
13976;DHT22;7062;49.792;9.946;2023-02-26T07:49:35;2.70;99.90
13976;DHT22;7062;49.792;9.946;2023-02-26T07:52:01;2.50;99.90
13976;DHT22;7062;49.792;9.946;2023-02-26T07:54:27;2.40;99.90
13976;DHT22;7062;49.792;9.946;2023-02-26T07:56:53;2.30;99.90
13976;DHT22;7062;49.792;9.946;2023-02-26T07:59:18;2.30;99.90
13976;DHT22;7062;49.792;9.946;2023-02-26T08:01:44;2.20;99.90
13976;DHT22;7062;49.792;9.946;2023-02-26T08:04:10;2.20;99.90
13976;DHT22;7062;49.792;9.946;2023-02-26T08:06:35;2.30;99.90
13976;DHT22;7062;49.792;9.946;2023-02-26T08:09:02;2.40;99.90
13976;DHT22;7062;49.792;9.946;2023-02-26T08:11:28;2.40;99.90
13976;DHT22;7062;49.792;9.946;2023-02-26T08:13:54;2.50;99.90
13976;DHT22;7062;49.792;9.946;2023-02-26T08:16:19;2.50;99.90
13976;DHT22;7062;49.792;9.946;2023-02-26T08:18:45;2.30;99.90
13976;DHT22;7062;49.792;9.946;2023-02-26T08:21:10;2.40;99.90
13976;DHT22;7062;49.792;9.946;2023-02-26T08:23:36;2.50;99.90
13976;DHT22;7062;49.792;9.946;2023-02-26T08:26:04;2.60;99.90
13976;DHT22;7062;49.792;9.946;2023-02-26T08:28:31;2.70;99.90
13976;DHT22;7062;49.792;9.946;2023-02-26T08:30:57;2.70;99.90
13976;DHT22;7062;49.792;9.946;2023-02-26T08:33:23;2.60;99.90
13976;DHT22;7062;49.792;9.946;2023-02-26T08:35:49;2.70;99.90
13976;DHT22;7062;49.792;9.946;2023-02-26T08:38:14;2.60;99.90
13976;DHT22;7062;49.792;9.946;2023-02-26T08:40:40;2.70;99.90
13976;DHT22;7062;49.792;9.946;2023-02-26T08:43:06;2.90;99.90
13976;DHT22;7062;49.792;9.946;2023-02-26T08:45:32;2.90;99.90
13976;DHT22;7062;49.792;9.946;2023-02-26T08:47:57;3.00;99.90
13976;DHT22;7062;49.792;9.946;2023-02-26T08:50:24;3.00;99.90
13976;DHT22;7062;49.792;9.946;2023-02-26T08:52:50;3.00;99.90
13976;DHT22;7062;49.792;9.946;2023-02-26T08:55:16;3.20;99.90
13976;DHT22;7062;49.792;9.946;2023-02-26T08:57:42;3.20;99.90
13976;DHT22;7062;49.792;9.946;2023-02-26T09:00:08;3.40;99.90
13976;DHT22;7062;49.792;9.946;2023-02-26T09:02:37;3.10;99.90
13976;DHT22;7062;49.792;9.946;2023-02-26T09:05:03;3.10;99.90
13976;DHT22;7062;49.792;9.946;2023-02-26T09:07:29;3.10;99.90
13976;DHT22;7062;49.792;9.946;2023-02-26T09:09:54;3.50;99.90
13976;DHT22;7062;49.792;9.946;2023-02-26T09:12:20;5.20;99.90
13976;DHT22;7062;49.792;9.946;2023-02-26T09:14:46;7.20;99.90
13976;DHT22;7062;49.792;9.946;2023-02-26T09:17:12;8.30;99.90
13976;DHT22;7062;49.792;9.946;2023-02-26T09:19:37;8.20;99.90
13976;DHT22;7062;49.792;9.946;2023-02-26T09:22:03;7.30;99.90
13976;DHT22;7062;49.792;9.946;2023-02-26T09:24:29;6.70;99.90
13976;DHT22;7062;49.792;9.946;2023-02-26T09:26:55;5.80;99.90
13976;DHT22;7062;49.792;9.946;2023-02-26T09:29:20;5.20;99.90
13976;DHT22;7062;49.792;9.946;2023-02-26T09:31:46;4.90;99.90
13976;DHT22;7062;49.792;9.946;2023-02-26T09:34:12;4.60;99.90
13976;DHT22;7062;49.792;9.946;2023-02-26T09:36:38;4.60;99.90
13976;DHT22;7062;49.792;9.946;2023-02-26T09:39:04;4.50;99.90
13976;DHT22;7062;49.792;9.946;2023-02-26T09:41:42;4.50;99.90
13976;DHT22;7062;49.792;9.946;2023-02-26T09:44:23;4.30;99.90
13976;DHT22;7062;49.792;9.946;2023-02-26T09:46:58;4.00;99.90
13976;DHT22;7062;49.792;9.946;2023-02-26T09:50:12;3.70;99.90
13976;DHT22;7062;49.792;9.946;2023-02-26T09:52:53;3.70;99.90
13976;DHT22;7062;49.792;9.946;2023-02-26T09:55:42;3.90;99.90
13976;DHT22;7062;49.792;9.946;2023-02-26T09:58:23;4.00;99.90
13976;DHT22;7062;49.792;9.946;2023-02-26T10:12:25;8.10;99.90
13976;DHT22;7062;49.792;9.946;2023-02-26T10:15:09;7.30;99.90
13976;DHT22;7062;49.792;9.946;2023-02-26T10:18:03;6.50;99.90
13976;DHT22;7062;49.792;9.946;2023-02-26T10:21:19;5.70;99.90
13976;DHT22;7062;49.792;9.946;2023-02-26T10:26:24;5.50;99.90
13976;DHT22;7062;49.792;9.946;2023-02-26T10:42:34;4.60;99.90
13976;DHT22;7062;49.792;9.946;2023-02-26T10:51:17;4.50;99.90
13976;DHT22;7062;49.792;9.946;2023-02-26T10:53:48;4.50;99.90
13976;DHT22;7062;49.792;9.946;2023-02-26T10:56:21;4.50;99.90
13976;DHT22;7062;49.792;9.946;2023-02-26T10:58:48;4.40;99.90
13976;DHT22;7062;49.792;9.946;2023-02-26T11:01:18;4.40;99.90
13976;DHT22;7062;49.792;9.946;2023-02-26T11:03:48;4.20;99.90
13976;DHT22;7062;49.792;9.946;2023-02-26T11:06:22;4.20;99.90
13976;DHT22;7062;49.792;9.946;2023-02-26T11:08:51;4.30;99.90
13976;DHT22;7062;49.792;9.946;2023-02-26T11:11:40;4.50;99.90
13976;DHT22;7062;49.792;9.946;2023-02-26T11:14:07;5.00;99.90
13976;DHT22;7062;49.792;9.946;2023-02-26T11:16:34;6.20;99.90
13976;DHT22;7062;49.792;9.946;2023-02-26T11:19:00;7.40;99.90
13976;DHT22;7062;49.792;9.946;2023-02-26T11:21:37;7.70;99.90
13976;DHT22;7062;49.792;9.946;2023-02-26T11:24:09;7.40;99.90
13976;DHT22;7062;49.792;9.946;2023-02-26T11:26:38;7.80;99.90
13976;DHT22;7062;49.792;9.946;2023-02-26T11:29:04;8.50;99.90
13976;DHT22;7062;49.792;9.946;2023-02-26T11:31:31;7.80;99.90
13976;DHT22;7062;49.792;9.946;2023-02-26T11:34:04;7.70;99.90
13976;DHT22;7062;49.792;9.946;2023-02-26T11:36:33;9.30;99.90
13976;DHT22;7062;49.792;9.946;2023-02-26T11:39:07;10.80;99.90
13976;DHT22;7062;49.792;9.946;2023-02-26T11:41:39;11.80;99.90
13976;DHT22;7062;49.792;9.946;2023-02-26T11:44:08;11.40;99.90
13976;DHT22;7062;49.792;9.946;2023-02-26T11:46:56;11.30;99.60
13976;DHT22;7062;49.792;9.946;2023-02-26T11:49:26;11.80;99.40
13976;DHT22;7062;49.792;9.946;2023-02-26T11:52:04;11.40;98.80
13976;DHT22;7062;49.792;9.946;2023-02-26T11:54:34;11.20;98.40
13976;DHT22;7062;49.792;9.946;2023-02-26T11:57:06;11.40;97.40
13976;DHT22;7062;49.792;9.946;2023-02-26T11:59:33;11.60;97.10
13976;DHT22;7062;49.792;9.946;2023-02-26T12:02:10;12.20;96.30
13976;DHT22;7062;49.792;9.946;2023-02-26T12:04:39;11.20;96.60
13976;DHT22;7062;49.792;9.946;2023-02-26T12:07:14;9.80;98.50
13976;DHT22;7062;49.792;9.946;2023-02-26T12:09:41;8.50;99.90
13976;DHT22;7062;49.792;9.946;2023-02-26T12:23:16;5.20;99.90
13976;DHT22;7062;49.792;9.946;2023-02-26T12:28:28;5.10;99.90
13976;DHT22;7062;49.792;9.946;2023-02-26T12:45:08;5.20;99.90
13976;DHT22;7062;49.792;9.946;2023-02-26T13:00:45;5.40;99.90
13976;DHT22;7062;49.792;9.946;2023-02-26T13:03:39;5.30;99.90
13976;DHT22;7062;49.792;9.946;2023-02-26T13:17:10;5.10;99.90
13976;DHT22;7062;49.792;9.946;2023-02-26T13:19:55;5.50;99.90
13976;DHT22;7062;49.792;9.946;2023-02-26T13:22:44;5.80;99.90
13976;DHT22;7062;49.792;9.946;2023-02-26T13:27:49;6.00;99.90
13976;DHT22;7062;49.792;9.946;2023-02-26T13:32:54;6.70;99.90
13976;DHT22;7062;49.792;9.946;2023-02-26T13:35:38;7.30;99.90
13976;DHT22;7062;49.792;9.946;2023-02-26T13:38:21;7.00;99.40
13976;DHT22;7062;49.792;9.946;2023-02-26T13:49:22;5.90;99.90
13976;DHT22;7062;49.792;9.946;2023-02-26T13:51:53;5.40;99.90
13976;DHT22;7062;49.792;9.946;2023-02-26T13:54:34;5.40;99.90
13976;DHT22;7062;49.792;9.946;2023-02-26T14:02:35;5.10;99.90
13976;DHT22;7062;49.792;9.946;2023-02-26T14:05:09;5.00;99.90
13976;DHT22;7062;49.792;9.946;2023-02-26T14:10:45;5.20;99.90
13976;DHT22;7062;49.792;9.946;2023-02-26T14:13:17;5.40;99.90
13976;DHT22;7062;49.792;9.946;2023-02-26T14:18:30;5.60;99.90
13976;DHT22;7062;49.792;9.946;2023-02-26T14:23:54;5.90;99.90
13976;DHT22;7062;49.792;9.946;2023-02-26T14:26:22;7.30;99.90
13976;DHT22;7062;49.792;9.946;2023-02-26T14:29:06;9.50;98.50
13976;DHT22;7062;49.792;9.946;2023-02-26T14:34:39;12.30;93.80
13976;DHT22;7062;49.792;9.946;2023-02-26T14:37:11;12.50;91.90
13976;DHT22;7062;49.792;9.946;2023-02-26T14:39:53;10.40;92.60
13976;DHT22;7062;49.792;9.946;2023-02-26T14:42:45;8.80;94.30
13976;DHT22;7062;49.792;9.946;2023-02-26T14:45:36;7.90;95.60
13976;DHT22;7062;49.792;9.946;2023-02-26T14:48:22;7.50;96.30
13976;DHT22;7062;49.792;9.946;2023-02-26T14:59:31;6.30;97.80
13976;DHT22;7062;49.792;9.946;2023-02-26T15:02:22;5.90;98.20
13976;DHT22;7062;49.792;9.946;2023-02-26T15:08:35;5.60;98.10
13976;DHT22;7062;49.792;9.946;2023-02-26T15:11:38;6.70;97.20
13976;DHT22;7062;49.792;9.946;2023-02-26T15:14:38;7.50;95.90
13976;DHT22;7062;49.792;9.946;2023-02-26T15:17:29;7.10;96.40
13976;DHT22;7062;49.792;9.946;2023-02-26T15:23:35;6.20;97.80
13976;DHT22;7062;49.792;9.946;2023-02-26T15:26:03;5.80;98.00
13976;DHT22;7062;49.792;9.946;2023-02-26T15:28:33;5.90;98.20
13976;DHT22;7062;49.792;9.946;2023-02-26T15:31:02;5.50;98.50
13976;DHT22;7062;49.792;9.946;2023-02-26T15:33:29;5.60;98.30
13976;DHT22;7062;49.792;9.946;2023-02-26T15:35:57;5.40;97.40
13976;DHT22;7062;49.792;9.946;2023-02-26T15:38:24;5.50;97.40
13976;DHT22;7062;49.792;9.946;2023-02-26T15:40:52;5.60;97.20
13976;DHT22;7062;49.792;9.946;2023-02-26T15:43:24;5.60;97.00
13976;DHT22;7062;49.792;9.946;2023-02-26T15:45:53;5.50;97.10
13976;DHT22;7062;49.792;9.946;2023-02-26T15:48:31;5.40;97.20
13976;DHT22;7062;49.792;9.946;2023-02-26T15:51:03;5.40;97.50
13976;DHT22;7062;49.792;9.946;2023-02-26T15:53:41;5.40;97.50
13976;DHT22;7062;49.792;9.946;2023-02-26T15:56:12;5.40;97.80
13976;DHT22;7062;49.792;9.946;2023-02-26T15:58:44;5.20;97.90
13976;DHT22;7062;49.792;9.946;2023-02-26T16:01:16;5.20;98.20
13976;DHT22;7062;49.792;9.946;2023-02-26T16:03:42;5.30;98.30
13976;DHT22;7062;49.792;9.946;2023-02-26T16:06:35;5.00;98.60
13976;DHT22;7062;49.792;9.946;2023-02-26T16:09:03;4.80;98.10
13976;DHT22;7062;49.792;9.946;2023-02-26T16:11:38;4.70;98.10
13976;DHT22;7062;49.792;9.946;2023-02-26T16:14:06;4.70;98.20
13976;DHT22;7062;49.792;9.946;2023-02-26T16:16:45;4.60;98.50
13976;DHT22;7062;49.792;9.946;2023-02-26T16:19:18;4.60;98.80
13976;DHT22;7062;49.792;9.946;2023-02-26T16:21:46;4.40;99.30
13976;DHT22;7062;49.792;9.946;2023-02-26T16:24:16;4.30;99.80
13976;DHT22;7062;49.792;9.946;2023-02-26T16:26:48;4.30;99.90
13976;DHT22;7062;49.792;9.946;2023-02-26T16:29:20;4.10;99.40
13976;DHT22;7062;49.792;9.946;2023-02-26T16:31:52;4.20;99.60
13976;DHT22;7062;49.792;9.946;2023-02-26T16:34:41;4.10;99.70
13976;DHT22;7062;49.792;9.946;2023-02-26T16:37:35;4.00;99.80
13976;DHT22;7062;49.792;9.946;2023-02-26T16:40:33;4.00;99.90
13976;DHT22;7062;49.792;9.946;2023-02-26T16:43:30;3.90;99.90
13976;DHT22;7062;49.792;9.946;2023-02-26T16:45:56;3.90;99.90
13976;DHT22;7062;49.792;9.946;2023-02-26T16:49:15;3.90;99.90
13976;DHT22;7062;49.792;9.946;2023-02-26T16:51:25;3.80;99.90
13976;DHT22;7062;49.792;9.946;2023-02-26T16:53:59;3.80;99.90
13976;DHT22;7062;49.792;9.946;2023-02-26T16:56:30;3.70;99.90
13976;DHT22;7062;49.792;9.946;2023-02-26T16:59:04;3.80;99.90
13976;DHT22;7062;49.792;9.946;2023-02-26T17:01:38;3.90;99.90
13976;DHT22;7062;49.792;9.946;2023-02-26T17:04:05;3.90;99.90
13976;DHT22;7062;49.792;9.946;2023-02-26T17:06:31;3.90;99.90
13976;DHT22;7062;49.792;9.946;2023-02-26T17:09:01;3.90;99.90
13976;DHT22;7062;49.792;9.946;2023-02-26T17:11:28;3.60;99.90
13976;DHT22;7062;49.792;9.946;2023-02-26T17:16:34;3.40;99.90
13976;DHT22;7062;49.792;9.946;2023-02-26T17:19:00;3.40;99.90
13976;DHT22;7062;49.792;9.946;2023-02-26T17:21:27;3.30;99.90
13976;DHT22;7062;49.792;9.946;2023-02-26T17:23:53;3.20;99.90
13976;DHT22;7062;49.792;9.946;2023-02-26T17:26:19;3.20;99.90
13976;DHT22;7062;49.792;9.946;2023-02-26T17:28:45;3.20;99.90
13976;DHT22;7062;49.792;9.946;2023-02-26T17:31:11;3.10;99.90
13976;DHT22;7062;49.792;9.946;2023-02-26T17:33:40;3.10;99.90
13976;DHT22;7062;49.792;9.946;2023-02-26T17:36:06;3.10;99.90
13976;DHT22;7062;49.792;9.946;2023-02-26T17:38:32;3.10;99.90
13976;DHT22;7062;49.792;9.946;2023-02-26T17:40:58;3.10;99.90
13976;DHT22;7062;49.792;9.946;2023-02-26T17:43:25;3.10;99.90
13976;DHT22;7062;49.792;9.946;2023-02-26T17:45:51;3.00;99.90
13976;DHT22;7062;49.792;9.946;2023-02-26T17:48:17;3.00;99.90
13976;DHT22;7062;49.792;9.946;2023-02-26T17:53:09;3.00;99.90
13976;DHT22;7062;49.792;9.946;2023-02-26T17:55:35;2.90;99.90
13976;DHT22;7062;49.792;9.946;2023-02-26T17:58:09;2.80;99.90
13976;DHT22;7062;49.792;9.946;2023-02-26T18:00:37;2.90;99.90
13976;DHT22;7062;49.792;9.946;2023-02-26T18:03:07;2.90;99.90
13976;DHT22;7062;49.792;9.946;2023-02-26T18:05:33;2.80;99.90
13976;DHT22;7062;49.792;9.946;2023-02-26T18:08:15;2.80;99.90
13976;DHT22;7062;49.792;9.946;2023-02-26T18:10:42;2.70;99.90
13976;DHT22;7062;49.792;9.946;2023-02-26T18:13:09;2.60;99.90
13976;DHT22;7062;49.792;9.946;2023-02-26T18:15:35;2.80;99.90
13976;DHT22;7062;49.792;9.946;2023-02-26T18:18:00;2.80;99.90
13976;DHT22;7062;49.792;9.946;2023-02-26T18:20:26;2.70;99.90
13976;DHT22;7062;49.792;9.946;2023-02-26T18:22:54;2.70;99.90
13976;DHT22;7062;49.792;9.946;2023-02-26T18:25:20;2.60;99.90
13976;DHT22;7062;49.792;9.946;2023-02-26T18:27:49;2.70;99.90
13976;DHT22;7062;49.792;9.946;2023-02-26T18:30:24;2.70;99.90
13976;DHT22;7062;49.792;9.946;2023-02-26T18:32:50;2.70;99.90
13976;DHT22;7062;49.792;9.946;2023-02-26T18:35:16;2.70;99.90
13976;DHT22;7062;49.792;9.946;2023-02-26T18:37:43;2.80;99.90
13976;DHT22;7062;49.792;9.946;2023-02-26T18:40:19;2.80;99.90
13976;DHT22;7062;49.792;9.946;2023-02-26T18:42:46;2.70;99.90
13976;DHT22;7062;49.792;9.946;2023-02-26T18:45:12;2.80;99.90
13976;DHT22;7062;49.792;9.946;2023-02-26T18:47:38;2.90;99.90
13976;DHT22;7062;49.792;9.946;2023-02-26T18:50:05;2.90;99.90
13976;DHT22;7062;49.792;9.946;2023-02-26T18:52:32;2.80;99.90
13976;DHT22;7062;49.792;9.946;2023-02-26T18:54:57;2.80;99.90
13976;DHT22;7062;49.792;9.946;2023-02-26T18:57:25;2.80;99.90
13976;DHT22;7062;49.792;9.946;2023-02-26T18:59:50;2.80;99.90
13976;DHT22;7062;49.792;9.946;2023-02-26T19:02:16;2.80;99.90
13976;DHT22;7062;49.792;9.946;2023-02-26T19:04:42;2.60;99.90
13976;DHT22;7062;49.792;9.946;2023-02-26T19:07:08;2.60;99.90
13976;DHT22;7062;49.792;9.946;2023-02-26T19:09:34;2.60;99.90
13976;DHT22;7062;49.792;9.946;2023-02-26T19:12:00;2.50;99.90
13976;DHT22;7062;49.792;9.946;2023-02-26T19:14:26;2.60;99.90
13976;DHT22;7062;49.792;9.946;2023-02-26T19:16:53;2.60;99.90
13976;DHT22;7062;49.792;9.946;2023-02-26T19:19:20;2.60;99.90
13976;DHT22;7062;49.792;9.946;2023-02-26T19:21:46;2.50;99.90
13976;DHT22;7062;49.792;9.946;2023-02-26T19:24:12;2.40;99.90
13976;DHT22;7062;49.792;9.946;2023-02-26T19:26:39;2.50;99.90
13976;DHT22;7062;49.792;9.946;2023-02-26T19:29:06;2.40;99.90
13976;DHT22;7062;49.792;9.946;2023-02-26T19:31:32;2.40;99.90